Etusivu
METAR-TAF:

METAR-TAF

Lentoasemat :

Gibraltar, Gibraltar

Gibraltarin lentoasema

Leveyspiiri: 36-09N, Pituuspiiri: 005-21W, korkeus merenpinnasta: 5 m

Tämänhetkinen sää

Tämä raportti tehtiin 1 tunti ja 7 minuuttia sitten, kello 15.50 UTC
Tuuli 15 kn idästä
Lämpötila 27°C
Kosteus 74%
Ilmanpaine 1015 hPa
Näkyvyys 10 km tai enemmän

METAR: LXGB 191550Z AUTO 08015KT 9999 // NCD 27/22 Q1015

Aika: 18:57 (16:57 UTC)

Sääennuste

Tämä raportti tehtiin 3 tuntia ja 36 minuuttia sitten, kello 13.21 UTC
Ennuste voimassa 19. päivästä klo 15 UTC - 19. päivään klo 22 UTC
Tuuli 9 kn idästä
Näkyvyys 10 km tai enemmän
Muutamia pilviä 1500 ft:n korkeudessa
Todennäköisyys 40% :
Ajoittain
19. päivästä klo 15 UTC - 19. päivään klo 22 UTC
Näkyvyys: 7000 m
Hajanaisia pilviä 1000 ft:n korkeudessa
usvaa

TAF: LXGB 191321Z 1915/1922 08009KT 9999 FEW015 PROB40 TEMPO 1915/1922 7000 HZ SCT010

Säähavainnot ja -ennusteet yli 4000 lentoasemalta (METAR- ja TAF-raportit).

Käytössä olevat sääasemat on merkitty karttaan keltaisilla ja punaisilla pisteillä.

Aseta hiiri pisteen päälle nähdäksesi sääaseman nimen.

Klikkaa sitten nähdäksesi säähavainnot ja -ennusteet.

Kartan vaihtaminen: klikkaa mustalla rastilla varustettuja vihreitä pisteitä, niin voit zoomata sisään; viivalla varustettua vihreää pistettä, niin voit zoomata ulos tai vihreitä nuolia, niin pääset viereisille kartoille.


METAR-TAF: